Data for 05/03/2015

Time Sea-Level Adjusted Pressure Absolute Pressure Temperature Relative Humidity Dew Point   
(mb) (inHg) (mb) (inHg) (C) (F) (%) (C) (F)
00:05 1015 29.97 844 24.92 9.8 49.6 32 -6.1 21
00:10 1015 29.97 844 24.92 9.5 49.2 33 -6 21.1
00:15 1015 29.97 844 24.92 9.4 48.9 33 -6.1 21.1
00:20 1015 29.97 844 24.92 9 48.1 37 -4.9 23.1
00:25 1015 29.97 845 24.95 9.2 48.6 35 -5.3 22.5
00:30 1015 29.97 845 24.95 9.1 48.4 41 -3.4 25.8
00:35 1016 30 845 24.95 9.2 48.5 47 -1.6 29.1
00:40 1015 29.97 845 24.95 9.3 48.8 50 -0.5 31.1
00:45 1016 30 845 24.95 9.5 49 52 -0 32
00:50 1016 30 845 24.95 9.4 49 53 0.4 32.6
00:55 1016 30 845 24.95 9.4 48.8 54 0.5 32.9
01:00 1016 30 845 24.95 9.2 48.6 55 0.6 33.1
01:05 1015 29.97 845 24.95 9.1 48.5 55 0.7 33.2
01:10 1016 30 845 24.95 9.1 48.4 55 0.7 33.3
01:15 1016 30 845 24.95 9 48.3 56 0.8 33.4
01:20 1016 30 845 24.95 9 48.1 56 0.7 33.3
01:25 1016 30 845 24.95 8.9 48 57 0.8 33.5
01:30 1016 30 845 24.95 8.8 47.8 57 0.8 33.4
01:35 1016 30 845 24.95 8.8 47.8 57 0.8 33.4
01:40 1016 30 845 24.95 8.7 47.6 58 0.8 33.5
01:45 1016 30 845 24.95 8.6 47.6 58 0.8 33.4
01:50 1016 30 845 24.95 8.5 47.3 58 0.8 33.4
01:55 1016 30 845 24.95 8.5 47.2 58 0.8 33.4
02:00 1016 30 845 24.95 8.3 47 59 0.8 33.4
02:05 1016 30 845 24.95 8.2 46.8 59 0.7 33.2
02:10 1016 30 845 24.95 8.1 46.6 59 0.7 33.3
02:15 1016 30 845 24.95 8 46.3 60 0.6 33.2
02:20 1016 30 845 24.95 7.9 46.2 60 0.6 33.1
02:25 1016 30 845 24.95 7.7 45.9 61 0.6 33.1
02:30 1016 30 845 24.95 7.6 45.6 61 0.6 33.1
02:35 1016 30 845 24.95 7.4 45.3 62 0.6 33.1
02:40 1016 30 845 24.95 7.3 45.1 62 0.5 32.9
02:45 1016 30 845 24.95 7.2 44.9 62 0.4 32.7
02:50 1016 30 845 24.95 7 44.7 62 0.3 32.5
02:55 1016 30 845 24.95 7 44.5 62 0.3 32.5
03:00 1016 30 845 24.95 6.9 44.3 62 0.2 32.3
03:05 1016 30 845 24.95 6.8 44.2 63 0.2 32.3
03:10 1016 30 845 24.95 6.6 43.9 63 0.1 32.2
03:15 1016 30 845 24.95 6.5 43.8 63 0 32.1
03:20 1016 30 845 24.95 6.5 43.6 63 0 32
03:25 1016 30 845 24.95 6.4 43.5 63 -0.1 31.8
03:30 1016 30 845 24.95 6.3 43.4 64 -0 31.9
03:35 1016 30 845 24.95 6.2 43.1 64 -0.2 31.7
03:40 1016 30 845 24.95 6.2 43.2 63 -0.2 31.6
03:45 1016 30 846 24.98 6.1 43 63 -0.3 31.5
03:50 1016 30 846 24.98 6 42.8 63 -0.4 31.3
03:55 1016 30 846 24.98 6 42.8 64 -0.4 31.3
04:00 1016 30 846 24.98 5.9 42.6 64 -0.5 31.1
04:05 1016 30 846 24.98 5.8 42.4 64 -0.5 31.2
04:10 1016 30 846 24.98 5.7 42.3 64 -0.5 31
04:15 1017 30.03 846 24.98 5.7 42.2 64 -0.6 31
04:20 1017 30.03 846 24.98 5.6 42.2 64 -0.6 31
04:25 1017 30.03 846 24.98 5.5 42 64 -0.6 30.9
04:30 1017 30.03 846 24.98 5.5 41.9 65 -0.6 30.9
04:35 1017 30.03 846 24.98 5.4 41.8 65 -0.6 30.8
04:40 1017 30.03 846 24.98 5.3 41.6 65 -0.7 30.7
04:45 1017 30.03 846 24.98 5.3 41.6 65 -0.8 30.6
04:50 1017 30.03 846 24.98 5.4 41.6 65 -0.7 30.7
04:55 1017 30.03 846 24.98 5.3 41.5 65 -0.7 30.7
05:00 1017 30.03 846 24.98 5.2 41.4 65 -0.8 30.6
05:05 1017 30.03 846 24.98 5.2 41.3 65 -0.8 30.6
05:10 1017 30.03 846 24.98 5.2 41.3 65 -0.8 30.6
05:15 1017 30.03 846 24.98 5.2 41.4 65 -0.8 30.6
05:20 1017 30.03 846 24.98 5.2 41.4 65 -0.8 30.6
05:25 1017 30.03 846 24.98 5.2 41.4 65 -0.8 30.6
05:30 1017 30.03 846 24.98 5.2 41.4 65 -0.8 30.6
05:35 1017 30.03 846 24.98 5.2 41.4 65 -0.8 30.6
05:40 1017 30.03 846 24.98 5.3 41.5 65 -0.8 30.6
05:45 1017 30.03 846 24.98 5.3 41.6 65 -0.7 30.7
05:50 1017 30.03 846 24.98 5.4 41.7 65 -0.7 30.7
05:55 1017 30.03 846 24.98 5.5 41.9 64 -0.8 30.6
06:00 1017 30.03 847 25.01 5.6 42 64 -0.7 30.8
06:05 1017 30.03 847 25.01 5.6 42.1 64 -0.7 30.8
06:10 1017 30.03 847 25.01 5.7 42.3 63 -0.7 30.8
06:15 1017 30.03 847 25.01 5.8 42.4 63 -0.6 30.9
06:20 1018 30.06 847 25.01 5.9 42.6 62 -0.7 30.7
06:25 1017 30.03 847 25.01 6.1 42.9 62 -0.6 30.9
06:30 1018 30.06 847 25.01 6.1 42.9 62 -0.7 30.8
06:35 1018 30.06 847 25.01 6.1 43 62 -0.5 31
06:40 1018 30.06 847 25.01 6.2 43.2 62 -0.6 31
06:45 1018 30.06 847 25.01 6.5 43.6 61 -0.4 31.2
06:50 1018 30.06 847 25.01 6.5 43.7 61 -0.6 30.9
06:55 1018 30.06 847 25.01 6.6 43.8 61 -0.5 31.1
07:00 1018 30.06 847 25.01 6.5 43.8 60 -0.6 30.9
07:05 1018 30.06 847 25.01 6.6 43.9 60 -0.5 31.1
07:10 1018 30.06 847 25.01 6.7 44 60 -0.4 31.2
07:15 1018 30.06 847 25.01 6.8 44.3 59 -0.6 31
07:20 1018 30.06 847 25.01 7 44.6 59 -0.4 31.2
07:25 1018 30.06 847 25.01 7 44.6 59 -0.4 31.3
07:30 1018 30.06 847 25.01 7.2 45 57 -0.6 30.9
07:35 1018 30.06 847 25.01 7.4 45.3 57 -0.5 31.1
07:40 1018 30.06 847 25.01 7.4 45.3 57 -0.5 31
07:45 1018 30.06 847 25.01 7.5 45.4 56 -0.7 30.8
07:50 1018 30.06 847 25.01 7.8 46.1 56 -0.4 31.2
07:55 1018 30.06 847 25.01 7.9 46.3 55 -0.5 31.1
08:00 1018 30.06 847 25.01 7.7 45.9 56 -0.6 31
08:05 1018 30.06 847 25.01 8.1 46.6 53 -0.8 30.6
08:10 1018 30.06 847 25.01 8.4 47.2 54 -0.4 31.3
08:15 1018 30.06 847 25.01 8.3 47 54 -0.5 31.1
08:20 1018 30.06 847 25.01 8.4 47.1 55 -0.2 31.6
08:25 1017 30.03 847 25.01 8.8 47.8 52 -0.4 31.3
08:30 1017 30.03 847 25.01 8.7 47.7 53 -0.3 31.4
08:35 1017 30.03 847 25.01 9 48.1 53 -0.2 31.7
08:40 1017 30.03 847 25.01 9 48.3 53 -0.1 31.9
08:45 1017 30.03 847 25.01 9.1 48.4 51 -0.4 31.3
08:50 1017 30.03 847 25.01 9.3 48.8 51 -0.3 31.5
08:55 1017 30.03 847 25.01 9.7 49.4 50 -0.3 31.4
09:00 1017 30.03 847 25.01 9.8 49.6 49 -0.3 31.5
09:05 1017 30.03 847 25.01 10 50 48 -0.6 31
09:10 1017 30.03 847 25.01 10.3 50.5 48 -0.2 31.7
09:15 1017 30.03 847 25.01 10.4 50.6 48 -0.2 31.6
09:20 1017 30.03 847 25.01 10.5 51 47 -0.3 31.5
09:25 1017 30.03 847 25.01 10.8 51.5 48 0.2 32.3
09:30 1017 30.03 847 25.01 11.2 52.1 44 -0.5 31.1
09:35 1017 30.03 846 24.98 11.3 52.4 46 0.2 32.4
09:40 1017 30.03 846 24.98 11.5 52.7 43 -0.5 31.2
09:45 1017 30.03 847 25.01 11.6 52.9 44 -0.1 31.7
09:50 1017 30.03 846 24.98 11.7 53.1 44 -0.1 31.9
09:55 1017 30.03 847 25.01 11.9 53.3 43 -0.3 31.5
10:00 1017 30.03 847 25.01 12 53.6 43 -0.3 31.5
10:05 1017 30.03 847 25.01 12.1 53.7 41 -0.6 31
10:10 1017 30.03 847 25.01 12.4 54.4 40 -0.7 30.8
10:15 1017 30.03 847 25.01 12.4 54.3 42 0 32.1
10:20 1017 30.03 847 25.01 12.9 55.3 40 -0.2 31.6
10:25 1017 30.03 847 25.01 13.5 56.4 38 -0.5 31
10:30 1017 30.03 846 24.98 13.1 55.6 43 0.9 33.6
10:35 1017 30.03 846 24.98 12.5 54.4 45 0.8 33.4
10:40 1017 30.03 846 24.98 13 55.4 43 0.8 33.4
10:45 1017 30.03 846 24.98 13.7 56.7 40 0.4 32.6
10:50 1017 30.03 846 24.98 13.8 56.9 40 0.4 32.7
10:55 1017 30.03 846 24.98 12.9 55.2 44 0.9 33.6
11:00 1017 30.03 846 24.98 12.9 55.2 43 0.9 33.5
11:05 1017 30.03 846 24.98 12.9 55.3 41 0.1 32.1
11:10 1017 30.03 846 24.98 14.3 57.7 39 0.4 32.7
11:15 1017 30.03 846 24.98 13.9 57.1 41 1.1 34
11:20 1017 30.03 846 24.98 13.4 56.1 42 0.7 33.3
11:25 1017 30.03 846 24.98 14.1 57.3 41 1.1 34
11:30 1017 30.03 846 24.98 14.4 58 35 -0.6 30.9
11:35 1017 30.03 846 24.98 15.1 59.3 34 -0.5 31.2
11:40 1017 30.03 846 24.98 14.8 58.7 37 0.3 32.6
11:45 1017 30.03 846 24.98 14.7 58.4 34 -1 30.3
11:50 1017 30.03 846 24.98 15.3 59.5 34 -0.6 30.9
11:55 1017 30.03 846 24.98 15.2 59.3 35 -0.3 31.5
12:00 1017 30.03 846 24.98 15.6 60 32 -0.8 30.6
12:05 1017 30.03 846 24.98 15.4 59.6 37 0.7 33.3
12:10 1017 30.03 846 24.98 16 60.7 35 0.5 32.8
12:15 1017 30.03 846 24.98 16.8 62.3 32 0.3 32.5
12:20 1017 30.03 846 24.98 16.9 62.5 33 0.7 33.3
12:25 1017 30.03 846 24.98 16.8 62.2 32 0.1 32.2
12:30 1017 30.03 846 24.98 16.2 61.1 32 -0.3 31.4
12:35 1017 30.03 846 24.98 16.1 61 33 0.1 32.2
12:40 1017 30.03 846 24.98 16 60.8 32 -0.4 31.3
12:45 1017 30.03 846 24.98 16.7 62 31 -0.6 30.9
12:50 1017 30.03 846 24.98 17.7 63.9 29 -0.5 31.1
12:55 1016 30 846 24.98 17.2 62.9 31 0 32.1
13:00 1016 30 846 24.98 16.9 62.4 30 -0.5 31.2
13:05 1016 30 846 24.98 17.2 63 27 -1.9 28.5
13:10 1016 30 846 24.98 16.5 61.7 30 -0.9 30.4
13:15 1016 30 846 24.98 17.6 63.7 27 -1.3 29.7
13:20 1016 30 846 24.98 17.9 64.3 29 -0.2 31.6
13:25 1016 30 846 24.98 18.1 64.6 21 -4.3 24.2
13:30 1016 30 846 24.98 17.4 63.3 25 -2.9 26.7
13:35 1016 30 845 24.95 17 62.5 25 -3 26.7
13:40 1016 30 845 24.95 17.8 64 25 -2.2 28.1
13:45 1016 30 845 24.95 16.9 62.4 20 -6.3 20.7
13:50 1016 30 845 24.95 17.6 63.7 24 -3.2 26.2
13:55 1016 30 845 24.95 17.7 63.9 24 -2.7 27.1
14:00 1016 30 845 24.95 17.2 63 22 -4.4 24
14:05 1016 30 845 24.95 17.4 63.3 22 -4.3 24.3
14:10 1016 30 845 24.95 18.1 64.5 21 -4.3 24.3
14:15 1016 30 845 24.95 18.1 64.6 22 -3.7 25.3
14:20 1016 30 845 24.95 17.6 63.8 22 -4.3 24.3
14:25 1016 30 845 24.95 17.8 64 23 -3.3 26.1
14:30 1016 30 845 24.95 17.1 62.7 22 -5 23.1
14:35 1016 30 845 24.95 17.4 63.2 20 -5.4 22.3
14:40 1016 30 845 24.95 17.2 63 22 -4.8 23.3
14:45 1016 30 845 24.95 17 62.5 23 -4.3 24.3
14:50 1016 30 845 24.95 16.7 62.1 24 -4 24.8
14:55 1016 30 845 24.95 16.5 61.8 24 -3.8 25.1
15:00 1016 30 845 24.95 16.6 61.9 23 -4.6 23.8
15:05 1016 30 845 24.95 17.1 62.8 22 -4.7 23.6
15:10 1016 30 845 24.95 16.8 62.3 21 -5.4 22.3
15:15 1016 30 845 24.95 17.3 63.1 20 -6.1 21
15:20 1016 30 845 24.95 17.4 63.3 18 -7 19.5
15:25 1016 30 845 24.95 17 62.6 20 -6.1 21
15:30 1016 30 845 24.95 16.6 61.9 21 -6 21.2
15:35 1016 30 845 24.95 16.5 61.7 19 -7.3 18.9
15:40 1016 30 845 24.95 16.6 61.9 21 -5.5 22.2
15:45 1016 30 845 24.95 16.9 62.5 19 -6.5 20.3
15:50 1016 30 845 24.95 17.2 62.9 25 -2.7 27.1
15:55 1016 30 845 24.95 17.1 62.9 25 -2.9 26.8
16:00 1015 29.97 845 24.95 17.4 63.4 26 -2.4 27.7
16:05 1015 29.97 845 24.95 17.3 63.2 27 -1.6 29.2
16:10 1015 29.97 845 24.95 17 62.6 27 -1.9 28.6
16:15 1015 29.97 845 24.95 16.5 61.7 28 -1.9 28.5
16:20 1015 29.97 845 24.95 16.4 61.4 28 -2.2 28.1
16:25 1015 29.97 845 24.95 16.9 62.4 27 -1.9 28.5
16:30 1015 29.97 845 24.95 16.6 61.9 28 -1.8 28.8
16:35 1015 29.97 845 24.95 16.5 61.6 29 -1.7 29
16:40 1015 29.97 845 24.95 16.2 61.1 29 -1.7 28.9
16:45 1015 29.97 845 24.95 16 60.8 29 -1.9 28.6
16:50 1015 29.97 845 24.95 15.8 60.4 29 -2.1 28.2
16:55 1015 29.97 845 24.95 15.7 60.3 29 -2.2 28.1
17:00 1015 29.97 845 24.95 15.5 59.9 30 -2.1 28.2
17:05 1015 29.97 845 24.95 15.3 59.5 30 -2.1 28.3
17:10 1015 29.97 845 24.95 15.4 59.8 29 -2.4 27.7
17:15 1015 29.97 845 24.95 15.6 60 29 -2.4 27.7
17:20 1015 29.97 845 24.95 15.3 59.6 29 -2.7 27.2
17:25 1015 29.97 845 24.95 15.3 59.6 28 -2.9 26.7
17:30 1015 29.97 845 24.95 15.2 59.3 29 -2.6 27.3
17:35 1015 29.97 845 24.95 15 59.1 29 -2.9 26.8
17:40 1015 29.97 845 24.95 14.9 58.9 29 -2.8 27
17:45 1015 29.97 845 24.95 14.8 58.7 29 -3 26.5
17:50 1015 29.97 845 24.95 14.8 58.6 29 -2.9 26.8
17:55 1015 29.97 845 24.95 14.6 58.2 30 -2.7 27.2
18:00 1015 29.97 845 24.95 14.5 58.1 30 -2.7 27.2
18:05 1015 29.97 845 24.95 14.4 57.9 30 -2.8 26.9
18:10 1015 29.97 845 24.95 14.3 57.7 30 -2.8 27
18:15 1015 29.97 845 24.95 14.2 57.6 31 -2.5 27.5
18:20 1015 29.97 845 24.95 14.2 57.6 31 -2.8 27
18:25 1015 29.97 845 24.95 14.1 57.4 31 -2.8 27
18:30 1016 30 845 24.95 14 57.1 32 -2.6 27.4
18:35 1016 30 845 24.95 13.9 56.9 32 -2.4 27.7
18:40 1016 30 845 24.95 13.7 56.7 33 -2.2 28
18:45 1016 30 845 24.95 13.6 56.4 33 -2.3 27.8
18:50 1016 30 845 24.95 13.4 56.1 34 -2.2 28
18:55 1016 30 845 24.95 13.2 55.8 34 -2.3 27.9
19:00 1016 30 845 24.95 13.1 55.6 35 -2.1 28.1
19:05 1016 30 845 24.95 12.9 55.3 35 -1.9 28.5
19:10 1016 30 845 24.95 12.8 55 36 -1.9 28.6
19:15 1016 30 845 24.95 12.7 54.8 36 -1.9 28.6
19:20 1016 30 845 24.95 12.5 54.5 37 -1.8 28.8
19:25 1016 30 845 24.95 12.4 54.3 37 -1.7 28.9
19:30 1016 30 845 24.95 12.3 54.2 38 -1.7 29
19:35 1016 30 845 24.95 12.1 53.8 39 -1.5 29.2
19:40 1016 30 845 24.95 11.9 53.5 39 -1.5 29.4
19:45 1016 30 845 24.95 11.8 53.2 39 -1.6 29.1
19:50 1016 30 845 24.95 11.7 53.1 39 -1.7 29
19:55 1016 30 845 24.95 11.7 53.1 40 -1.5 29.4
20:00 1016 30 845 24.95 11.6 52.9 40 -1.4 29.4
20:05 1016 30 845 24.95 11.6 52.9 41 -1.2 29.8
20:10 1016 30 845 24.95 11.5 52.6 41 -1.2 29.9
20:15 1016 30 845 24.95 11.4 52.4 42 -1.1 30.1
20:20 1016 30 845 24.95 11.2 52.2 43 -1 30.2
20:25 1016 30 845 24.95 11.2 52.1 42 -1.1 30.1
20:30 1016 30 846 24.98 11.2 52.1 43 -1 30.2
20:35 1016 30 846 24.98 11.2 52.1 43 -1 30.2
20:40 1016 30 846 24.98 11.2 52.1 43 -1.1 30.1
20:45 1016 30 846 24.98 11.2 52.2 42 -1.1 30.1
20:50 1016 30 846 24.98 11.1 52 43 -1.1 30.1
20:55 1016 30 846 24.98 11 51.8 43 -0.9 30.3
21:00 1016 30 846 24.98 10.9 51.7 44 -0.9 30.4
21:05 1016 30 846 24.98 10.9 51.6 43 -1 30.2
21:10 1016 30 846 24.98 10.9 51.6 44 -0.9 30.4
21:15 1016 30 846 24.98 10.8 51.4 44 -0.8 30.6
21:20 1016 30 846 24.98 10.7 51.3 45 -0.7 30.8
21:25 1016 30 846 24.98 10.7 51.2 45 -0.6 30.9
21:30 1016 30 846 24.98 10.6 51.2 46 -0.6 31
21:35 1016 30 846 24.98 10.6 51.1 46 -0.6 31
21:40 1016 30 846 24.98 10.6 51 46 -0.5 31
21:45 1016 30 846 24.98 10.5 50.9 46 -0.6 30.9
21:50 1016 30 846 24.98 10.4 50.8 46 -0.6 30.9
21:55 1016 30 846 24.98 10.4 50.7 47 -0.5 31.2
22:00 1016 30 846 24.98 10.4 50.7 47 -0.4 31.2
22:05 1016 30 846 24.98 10.3 50.5 47 -0.6 31
22:10 1016 30 846 24.98 10.3 50.5 47 -0.4 31.2
22:15 1016 30 846 24.98 10.2 50.3 47 -0.4 31.2
22:20 1016 30 846 24.98 10.1 50.2 48 -0.4 31.3
22:25 1017 30.03 846 24.98 10 50 48 -0.5 31.2
22:30 1016 30 846 24.98 9.9 49.8 49 -0.4 31.3
22:35 1016 30 846 24.98 9.8 49.7 49 -0.4 31.3
22:40 1016 30 846 24.98 9.8 49.6 49 -0.4 31.3
22:45 1016 30 846 24.98 9.8 49.6 49 -0.3 31.4
22:50 1016 30 846 24.98 9.7 49.5 50 -0.3 31.5
22:55 1016 30 846 24.98 9.7 49.4 50 -0.4 31.4
23:00 1016 30 846 24.98 9.7 49.4 50 -0.2 31.6
23:05 1016 30 846 24.98 9.6 49.3 50 -0.2 31.6
23:10 1016 30 846 24.98 9.5 49.1 51 -0.2 31.7
23:15 1016 30 846 24.98 9.5 49 51 -0.1 31.9
23:20 1016 30 846 24.98 9.4 48.9 51 -0 31.9
23:25 1016 30 846 24.98 9.3 48.8 52 -0 31.9
23:30 1016 30 846 24.98 9.3 48.7 53 0.1 32.2
23:35 1016 30 846 24.98 9.2 48.6 53 0.2 32.3
23:40 1016 30 846 24.98 9.2 48.6 53 0.2 32.3
23:45 1016 30 846 24.98 9.2 48.5 54 0.3 32.6
23:50 1016 30 846 24.98 9.2 48.5 54 0.3 32.6
23:55 1016 30 846 24.98 9.1 48.4 54 0.3 32.6
24:00 1016 30 846 24.98 9.1 48.3 54 0.4 32.7